createdAt,value
2023-01-01T00:00:50.131Z,100.00
2023-01-01T00:03:18.127Z,100.00
2023-01-01T00:05:45.956Z,100.00
2023-01-01T00:08:13.938Z,100.00
2023-01-01T00:10:41.799Z,100.00
2023-01-01T00:13:09.878Z,100.00
2023-01-01T00:15:37.748Z,100.00
2023-01-01T00:18:05.822Z,100.00
2023-01-01T00:20:35.527Z,100.00
2023-01-01T00:23:03.831Z,100.00
2023-01-01T00:25:33.673Z,100.00
2023-01-01T00:28:02.165Z,100.00
2023-01-01T00:30:30.161Z,100.00
2023-01-01T00:32:58.163Z,100.00
2023-01-01T00:35:26.551Z,100.00
2023-01-01T00:37:55.031Z,100.00
2023-01-01T00:40:23.151Z,100.00
2023-01-01T00:42:51.119Z,100.00
2023-01-01T00:45:22.265Z,100.00
2023-01-01T00:47:53.507Z,100.00
2023-01-01T00:50:22.192Z,100.00
2023-01-01T00:52:50.412Z,100.00
2023-01-01T00:55:18.418Z,100.00
2023-01-01T00:57:46.354Z,100.00
2023-01-01T01:00:15.146Z,100.00
2023-01-01T01:02:43.100Z,100.00
2023-01-01T01:05:11.433Z,100.00
2023-01-01T01:07:39.930Z,100.00
2023-01-01T01:10:08.329Z,100.00
2023-01-01T01:12:36.700Z,100.00
2023-01-01T01:15:05.380Z,100.00
2023-01-01T01:17:33.379Z,100.00
2023-01-01T01:20:05.891Z,100.00
2023-01-01T01:22:35.817Z,100.00
2023-01-01T01:25:03.686Z,100.00
2023-01-01T01:27:31.717Z,100.00
2023-01-01T01:29:59.559Z,100.00
2023-01-01T01:32:32.137Z,100.00
2023-01-01T01:35:00.127Z,100.00
2023-01-01T01:37:28.029Z,100.00
2023-01-01T01:39:55.881Z,100.00
2023-01-01T01:42:23.814Z,100.00
2023-01-01T01:45:00.432Z,100.00
2023-01-01T01:47:39.176Z,100.00
2023-01-01T01:50:11.606Z,100.00
2023-01-01T01:52:40.628Z,100.00
2023-01-01T01:55:09.270Z,100.00
2023-01-01T01:57:38.288Z,100.00
2023-01-01T02:00:10.934Z,100.00
2023-01-01T02:03:07.752Z,100.00
2023-01-01T02:05:40.257Z,100.00
2023-01-01T02:08:08.567Z,100.00
2023-01-01T02:10:36.572Z,100.00
2023-01-01T02:13:04.516Z,100.00
2023-01-01T02:15:35.833Z,100.00
2023-01-01T02:18:07.852Z,100.00
2023-01-01T02:20:59.640Z,100.00
2023-01-01T02:23:59.455Z,100.00
2023-01-01T02:26:45.662Z,100.00
2023-01-01T02:29:33.079Z,100.00
2023-01-01T02:32:09.947Z,100.00
2023-01-01T02:34:44.664Z,100.00
2023-01-01T02:37:14.716Z,100.00
2023-01-01T02:39:46.975Z,100.00
2023-01-01T02:42:14.931Z,100.00
2023-01-01T02:44:47.760Z,100.00
2023-01-01T02:47:17.967Z,100.00
2023-01-01T02:49:54.833Z,100.00
2023-01-01T02:52:38.297Z,100.00
2023-01-01T02:55:09.131Z,100.00
2023-01-01T02:57:42.999Z,100.00
2023-01-01T03:00:25.539Z,100.00
2023-01-01T03:03:20.896Z,100.00
2023-01-01T03:06:16.032Z,100.00
2023-01-01T03:08:48.700Z,100.00
2023-01-01T03:11:21.328Z,100.00
2023-01-01T03:13:59.416Z,100.00
2023-01-01T03:16:32.991Z,100.00
2023-01-01T03:19:12.866Z,100.00
2023-01-01T03:21:49.931Z,100.00
2023-01-01T03:24:27.264Z,100.00
2023-01-01T03:26:58.430Z,100.00
2023-01-01T03:29:30.893Z,100.00
2023-01-01T03:31:59.419Z,100.00
2023-01-01T03:34:31.999Z,100.00
2023-01-01T03:37:04.592Z,100.00
2023-01-01T03:39:38.746Z,100.00
2023-01-01T03:42:11.497Z,100.00
2023-01-01T03:44:53.970Z,100.00
2023-01-01T03:47:21.905Z,100.00
2023-01-01T03:49:50.468Z,100.00
2023-01-01T03:52:38.479Z,100.00
2023-01-01T03:55:30.450Z,100.00
2023-01-01T03:58:36.616Z,100.00
2023-01-01T04:01:09.119Z,100.00
2023-01-01T04:03:41.745Z,100.00
2023-01-01T04:06:10.807Z,100.00
2023-01-01T04:08:39.020Z,100.00
2023-01-01T04:11:30.984Z,100.00
2023-01-01T04:13:58.861Z,100.00
2023-01-01T04:16:26.967Z,100.00
2023-01-01T04:18:54.960Z,100.00
2023-01-01T04:21:27.438Z,100.00
2023-01-01T04:23:55.321Z,100.00
2023-01-01T04:26:23.246Z,100.00
2023-01-01T04:28:51.144Z,100.00
2023-01-01T04:31:23.555Z,100.00
2023-01-01T04:33:55.100Z,100.00
2023-01-01T04:36:22.994Z,100.00
2023-01-01T04:38:50.908Z,100.00
2023-01-01T04:41:18.781Z,100.00
2023-01-01T04:43:55.284Z,100.00
2023-01-01T04:46:23.462Z,100.00
2023-01-01T04:48:51.515Z,100.00
2023-01-01T04:51:20.347Z,100.00
2023-01-01T04:53:48.304Z,100.00
2023-01-01T04:56:21.076Z,100.00
2023-01-01T04:58:49.042Z,100.00
2023-01-01T05:01:22.121Z,100.00
2023-01-01T05:03:50.182Z,100.00
2023-01-01T05:06:18.079Z,100.00
2023-01-01T05:08:47.948Z,100.00
2023-01-01T05:11:21.804Z,100.00
2023-01-01T05:13:51.985Z,100.00
2023-01-01T05:16:21.529Z,100.00
2023-01-01T05:18:49.863Z,100.00
2023-01-01T05:21:22.240Z,100.00
2023-01-01T05:23:50.093Z,100.00
2023-01-01T05:26:21.235Z,100.00
2023-01-01T05:28:49.127Z,100.00
2023-01-01T05:31:21.753Z,100.00
2023-01-01T05:33:50.403Z,100.00
2023-01-01T05:36:32.157Z,100.00
2023-01-01T05:39:00.124Z,100.00
2023-01-01T05:41:28.196Z,100.00
2023-01-01T05:43:56.064Z,100.00
2023-01-01T05:46:25.131Z,100.00
2023-01-01T05:48:54.168Z,100.00
2023-01-01T05:51:26.623Z,100.00
2023-01-01T05:53:54.896Z,100.00
2023-01-01T05:56:22.833Z,100.00
2023-01-01T05:58:50.758Z,100.00
2023-01-01T06:01:19.720Z,100.00
2023-01-01T06:03:49.972Z,100.00
2023-01-01T06:06:22.733Z,100.00
2023-01-01T06:08:55.131Z,100.00
2023-01-01T06:11:23.287Z,100.00
2023-01-01T06:14:05.562Z,100.00
2023-01-01T06:16:33.884Z,100.00
2023-01-01T06:19:01.873Z,100.00
2023-01-01T06:21:34.480Z,100.00
2023-01-01T06:24:02.637Z,100.00
2023-01-01T06:26:32.052Z,100.00
2023-01-01T06:29:00.464Z,95.81
2023-01-01T06:31:28.767Z,96.57
2023-01-01T06:33:56.682Z,95.86
2023-01-01T06:36:25.286Z,92.90
2023-01-01T06:38:54.296Z,93.12
2023-01-01T06:41:25.953Z,92.39
2023-01-01T06:43:55.737Z,92.71
2023-01-01T06:46:30.867Z,91.68
2023-01-01T06:49:03.958Z,93.66
2023-01-01T06:51:33.629Z,90.28
2023-01-01T06:54:02.498Z,90.74
2023-01-01T06:56:30.343Z,89.05
2023-01-01T06:58:58.585Z,88.76
2023-01-01T07:01:28.225Z,90.16
2023-01-01T07:03:56.754Z,87.11
2023-01-01T07:06:24.990Z,85.90
2023-01-01T07:08:52.953Z,85.75
2023-01-01T07:11:26.631Z,86.68
2023-01-01T07:13:54.903Z,85.95
2023-01-01T07:16:23.239Z,84.13
2023-01-01T07:18:51.960Z,83.61
2023-01-01T07:21:37.858Z,83.63
2023-01-01T07:24:06.698Z,82.34
2023-01-01T07:26:39.718Z,81.63
2023-01-01T07:29:08.418Z,83.50
2023-01-01T07:31:40.891Z,82.39
2023-01-01T07:34:10.572Z,82.51
2023-01-01T07:36:38.522Z,82.18
2023-01-01T07:39:06.452Z,83.95
2023-01-01T07:41:34.422Z,81.29
2023-01-01T07:44:02.318Z,83.59
2023-01-01T07:46:30.567Z,82.75
2023-01-01T07:48:58.570Z,82.26
2023-01-01T07:51:26.556Z,80.98
2023-01-01T07:53:54.795Z,80.89
2023-01-01T07:56:22.783Z,80.08
2023-01-01T07:58:50.635Z,82.32
2023-01-01T08:01:18.596Z,79.22
2023-01-01T08:03:51.205Z,81.60
2023-01-01T08:06:19.217Z,81.08
2023-01-01T08:08:47.375Z,82.28
2023-01-01T08:11:20.092Z,83.91
2023-01-01T08:13:48.039Z,84.16
2023-01-01T08:16:20.749Z,84.60
2023-01-01T08:18:48.840Z,84.64
2023-01-01T08:21:16.808Z,85.06
2023-01-01T08:23:44.869Z,84.37
2023-01-01T08:26:17.561Z,85.61
2023-01-01T08:28:45.741Z,83.14
2023-01-01T08:31:13.602Z,79.96
2023-01-01T08:33:43.305Z,79.57
2023-01-01T08:36:12.210Z,80.02
2023-01-01T08:38:40.126Z,80.55
2023-01-01T08:41:20.285Z,78.16
2023-01-01T08:43:48.095Z,75.55
2023-01-01T08:46:16.019Z,75.62
2023-01-01T08:48:48.737Z,77.00
2023-01-01T08:51:16.878Z,77.10
2023-01-01T08:53:50.655Z,76.94
2023-01-01T08:56:21.921Z,78.17
2023-01-01T08:58:50.505Z,78.08
2023-01-01T09:01:23.181Z,77.83
2023-01-01T09:03:51.428Z,78.66
2023-01-01T09:06:19.192Z,78.75
2023-01-01T09:08:47.045Z,79.00
2023-01-01T09:11:28.605Z,79.32
2023-01-01T09:13:56.563Z,78.15
2023-01-01T09:16:24.575Z,79.94
2023-01-01T09:19:04.856Z,81.17
2023-01-01T09:21:32.966Z,81.05
2023-01-01T09:24:00.819Z,81.74
2023-01-01T09:26:28.922Z,82.13
2023-01-01T09:28:56.887Z,84.73
2023-01-01T09:31:25.019Z,82.80
2023-01-01T09:33:52.992Z,80.72
2023-01-01T09:36:23.593Z,79.75
2023-01-01T09:38:52.053Z,76.28
2023-01-01T09:41:33.878Z,75.95
2023-01-01T09:44:04.681Z,74.69
2023-01-01T09:46:34.857Z,74.27
2023-01-01T09:49:06.315Z,74.72
2023-01-01T09:51:39.912Z,74.72
2023-01-01T09:54:28.781Z,75.09
2023-01-01T09:56:59.090Z,72.33
2023-01-01T09:59:27.391Z,73.63
2023-01-01T10:02:06.640Z,72.88
2023-01-01T10:04:51.269Z,71.64
2023-01-01T10:07:33.414Z,72.05
2023-01-01T10:10:45.899Z,70.88
2023-01-01T10:13:17.338Z,69.85
2023-01-01T10:16:05.444Z,69.69
2023-01-01T10:18:35.089Z,68.27
2023-01-01T10:21:11.339Z,68.84
2023-01-01T10:23:49.001Z,71.30
2023-01-01T10:26:22.930Z,69.28
2023-01-01T10:29:07.747Z,68.06
2023-01-01T10:31:37.452Z,69.81
2023-01-01T10:34:27.672Z,71.06
2023-01-01T10:37:00.437Z,69.56
2023-01-01T10:39:28.376Z,70.70
2023-01-01T10:44:39.080Z,72.78
2023-01-01T10:47:30.750Z,71.66
2023-01-01T10:50:06.567Z,70.84
2023-01-01T10:52:38.932Z,71.47
2023-01-01T10:55:07.933Z,69.38
2023-01-01T10:57:45.945Z,69.49
2023-01-01T11:00:20.258Z,70.00
2023-01-01T11:02:48.201Z,72.57
2023-01-01T11:05:22.697Z,69.44
2023-01-01T11:07:51.108Z,68.00
2023-01-01T11:10:23.933Z,67.24
2023-01-01T11:13:07.839Z,66.31
2023-01-01T11:15:40.475Z,64.22
2023-01-01T11:18:21.824Z,63.55
2023-01-01T11:20:56.700Z,62.60
2023-01-01T11:23:36.141Z,62.40
2023-01-01T11:26:20.044Z,62.70
2023-01-01T11:29:29.311Z,63.79
2023-01-01T11:32:07.975Z,63.08
2023-01-01T11:34:49.787Z,64.13
2023-01-01T11:37:25.967Z,62.39
2023-01-01T11:39:54.427Z,61.65
2023-01-01T11:42:34.119Z,61.99
2023-01-01T11:45:04.901Z,60.57
2023-01-01T11:47:37.039Z,61.07
2023-01-01T11:50:29.724Z,60.29
2023-01-01T11:53:02.070Z,60.29
2023-01-01T11:55:39.466Z,60.31
2023-01-01T11:58:19.167Z,59.89
2023-01-01T12:00:54.241Z,60.83
2023-01-01T12:03:33.617Z,60.97
2023-01-01T12:06:11.336Z,60.46
2023-01-01T12:08:55.419Z,59.92
2023-01-01T12:11:39.148Z,61.37
2023-01-01T12:14:32.694Z,61.92
2023-01-01T12:17:11.485Z,62.89
2023-01-01T12:20:00.634Z,62.04
2023-01-01T12:22:33.643Z,62.05
2023-01-01T12:25:01.543Z,62.13
2023-01-01T12:27:46.718Z,63.03
2023-01-01T12:30:20.559Z,62.49
2023-01-01T12:33:08.610Z,62.32
2023-01-01T12:36:02.835Z,62.68
2023-01-01T12:38:33.745Z,63.44
2023-01-01T12:41:42.100Z,61.87
2023-01-01T12:44:19.072Z,63.63
2023-01-01T12:46:50.475Z,62.92
2023-01-01T12:49:37.813Z,63.51
2023-01-01T12:52:15.980Z,64.62
2023-01-01T12:55:24.467Z,66.13
2023-01-01T12:58:30.231Z,65.94
2023-01-01T13:01:03.006Z,66.58
2023-01-01T13:03:50.724Z,66.90
2023-01-01T13:06:28.633Z,68.51
2023-01-01T13:09:01.031Z,68.25
2023-01-01T13:11:29.564Z,69.34
2023-01-01T13:13:57.567Z,70.08
2023-01-01T13:16:42.885Z,70.50
2023-01-01T13:19:33.405Z,70.43
2023-01-01T13:22:30.458Z,71.20
2023-01-01T13:25:15.132Z,70.56
2023-01-01T13:28:02.687Z,73.17
2023-01-01T13:30:36.795Z,71.54
2023-01-01T13:33:34.947Z,72.90
2023-01-01T13:36:28.663Z,71.14
2023-01-01T13:38:59.384Z,70.80
2023-01-01T13:41:32.222Z,72.09
2023-01-01T13:44:04.354Z,72.54
2023-01-01T13:46:44.626Z,70.27
2023-01-01T13:49:31.203Z,70.97
2023-01-01T13:52:05.784Z,71.67
2023-01-01T13:54:52.866Z,72.15
2023-01-01T13:57:54.689Z,72.36
2023-01-01T14:00:24.070Z,70.45
2023-01-01T14:03:03.981Z,71.40
2023-01-01T14:05:44.700Z,70.76
2023-01-01T14:08:34.860Z,72.98
2023-01-01T14:11:03.531Z,71.88
2023-01-01T14:13:34.833Z,71.68
2023-01-01T14:16:03.941Z,71.28
2023-01-01T14:18:40.571Z,71.62
2023-01-01T14:21:19.772Z,72.71
2023-01-01T14:23:56.704Z,72.89
2023-01-01T14:26:29.219Z,72.23
2023-01-01T14:29:01.216Z,72.33
2023-01-01T14:31:33.271Z,72.23
2023-01-01T14:34:05.832Z,72.42
2023-01-01T14:36:33.920Z,72.50
2023-01-01T14:39:06.557Z,72.84
2023-01-01T14:41:39.205Z,73.36
2023-01-01T14:44:13.014Z,73.76
2023-01-01T14:46:41.750Z,74.56
2023-01-01T14:49:16.747Z,74.97
2023-01-01T14:51:46.819Z,74.73
2023-01-01T14:54:21.015Z,73.32
2023-01-01T14:56:53.687Z,73.35
2023-01-01T14:59:51.359Z,72.96
2023-01-01T15:02:27.301Z,72.21
2023-01-01T15:04:55.269Z,73.06
2023-01-01T15:07:31.094Z,72.66
2023-01-01T15:10:05.449Z,73.94
2023-01-01T15:12:35.224Z,74.58
2023-01-01T15:15:03.141Z,75.39
2023-01-01T15:17:46.011Z,76.58
2023-01-01T15:20:25.747Z,77.52
2023-01-01T15:22:55.978Z,78.23
2023-01-01T15:25:23.869Z,78.50
2023-01-01T15:27:53.536Z,80.00
2023-01-01T15:30:29.207Z,80.59
2023-01-01T15:33:01.840Z,79.81
2023-01-01T15:35:32.454Z,79.91
2023-01-01T15:38:15.717Z,79.90
2023-01-01T15:40:51.079Z,81.81
2023-01-01T15:43:24.298Z,82.59
2023-01-01T15:46:19.984Z,83.41
2023-01-01T15:48:52.358Z,85.62
2023-01-01T15:51:20.855Z,85.80
2023-01-01T15:53:53.011Z,85.32
2023-01-01T15:56:21.267Z,86.00
2023-01-01T15:59:15.244Z,86.01
2023-01-01T16:01:43.224Z,87.20
2023-01-01T16:04:29.611Z,86.69
2023-01-01T16:06:58.389Z,88.27
2023-01-01T16:09:26.436Z,89.13
2023-01-01T16:11:55.500Z,89.41
2023-01-01T16:14:23.809Z,90.04
2023-01-01T16:16:57.533Z,89.95
2023-01-01T16:19:25.682Z,90.60
2023-01-01T16:21:58.779Z,90.88
2023-01-01T16:24:26.856Z,91.71
2023-01-01T16:26:54.736Z,93.10
2023-01-01T16:29:22.565Z,93.01
2023-01-01T16:31:52.043Z,93.82
2023-01-01T16:34:24.624Z,93.98
2023-01-01T16:36:52.484Z,93.85
2023-01-01T16:39:22.636Z,94.05
2023-01-01T16:41:50.885Z,95.06
2023-01-01T16:44:18.842Z,95.79
2023-01-01T16:46:46.915Z,95.40
2023-01-01T16:49:14.768Z,95.61
2023-01-01T16:51:44.047Z,96.31
2023-01-01T16:54:12.221Z,96.99
2023-01-01T16:56:40.100Z,97.59
2023-01-01T16:59:07.914Z,98.31
2023-01-01T17:01:36.001Z,97.97
2023-01-01T17:04:03.960Z,98.29
2023-01-01T17:06:31.947Z,98.99
2023-01-01T17:09:02.704Z,99.88
2023-01-01T17:11:30.944Z,100.00
2023-01-01T17:14:00.841Z,100.00
2023-01-01T17:16:38.775Z,100.00
2023-01-01T17:19:16.753Z,100.00
2023-01-01T17:21:46.092Z,100.00
2023-01-01T17:24:14.473Z,100.00
2023-01-01T17:26:42.799Z,100.00
2023-01-01T17:29:10.744Z,100.00
2023-01-01T17:31:38.747Z,100.00
2023-01-01T17:34:07.204Z,100.00
2023-01-01T17:36:37.108Z,100.00
2023-01-01T17:39:05.091Z,100.00
2023-01-01T17:41:32.912Z,100.00
2023-01-01T17:44:00.851Z,100.00
2023-01-01T17:46:31.138Z,100.00
2023-01-01T17:48:59.107Z,100.00
2023-01-01T17:51:27.554Z,100.00
2023-01-01T17:53:56.367Z,100.00
2023-01-01T17:56:24.648Z,100.00
2023-01-01T17:58:53.598Z,100.00
2023-01-01T18:01:24.642Z,100.00
2023-01-01T18:03:57.315Z,100.00
2023-01-01T18:06:25.333Z,100.00
2023-01-01T18:08:57.735Z,100.00
2023-01-01T18:11:26.420Z,100.00
2023-01-01T18:13:54.410Z,100.00
2023-01-01T18:16:22.381Z,100.00
2023-01-01T18:18:50.291Z,100.00
2023-01-01T18:21:22.068Z,100.00
2023-01-01T18:23:51.246Z,100.00
2023-01-01T18:26:19.252Z,100.00
2023-01-01T18:28:47.249Z,100.00
2023-01-01T18:31:16.293Z,100.00
2023-01-01T18:33:44.424Z,100.00
2023-01-01T18:36:16.159Z,100.00
2023-01-01T18:38:46.406Z,100.00
2023-01-01T18:41:36.372Z,100.00
2023-01-01T18:44:04.215Z,100.00
2023-01-01T18:46:32.120Z,100.00
2023-01-01T18:49:00.115Z,100.00
2023-01-01T18:51:28.223Z,100.00
2023-01-01T18:53:57.803Z,100.00
2023-01-01T18:56:26.769Z,100.00
2023-01-01T18:58:56.023Z,100.00
2023-01-01T19:01:24.766Z,100.00
2023-01-01T19:03:56.012Z,100.00
2023-01-01T19:06:27.932Z,100.00
2023-01-01T19:08:59.269Z,100.00
2023-01-01T19:11:27.205Z,100.00
2023-01-01T19:13:55.127Z,100.00
2023-01-01T19:16:27.674Z,100.00
2023-01-01T19:18:55.868Z,100.00
2023-01-01T19:21:24.904Z,100.00
2023-01-01T19:23:53.542Z,100.00
2023-01-01T19:26:35.376Z,100.00
2023-01-01T19:29:20.383Z,100.00
2023-01-01T19:31:56.782Z,100.00
2023-01-01T19:34:25.105Z,100.00
2023-01-01T19:36:53.296Z,100.00
2023-01-01T19:39:21.165Z,100.00
2023-01-01T19:41:49.085Z,100.00
2023-01-01T19:44:22.935Z,100.00
2023-01-01T19:46:52.962Z,100.00
2023-01-01T19:49:20.928Z,100.00
2023-01-01T19:51:48.747Z,100.00
2023-01-01T19:54:16.605Z,100.00
2023-01-01T19:56:44.535Z,100.00
2023-01-01T19:59:12.415Z,100.00
2023-01-01T20:01:40.680Z,100.00
2023-01-01T20:04:08.785Z,100.00
2023-01-01T20:06:37.538Z,100.00
2023-01-01T20:09:05.437Z,100.00
2023-01-01T20:11:33.380Z,100.00
2023-01-01T20:14:01.298Z,100.00
2023-01-01T20:16:29.292Z,100.00
2023-01-01T20:18:57.220Z,100.00
2023-01-01T20:21:43.826Z,100.00
2023-01-01T20:24:12.223Z,100.00
2023-01-01T20:26:40.149Z,100.00
2023-01-01T20:29:23.244Z,100.00
2023-01-01T20:31:52.574Z,100.00
2023-01-01T20:34:20.715Z,100.00
2023-01-01T20:37:11.935Z,100.00
2023-01-01T20:39:40.033Z,100.00
2023-01-01T20:42:12.738Z,100.00
2023-01-01T20:44:43.987Z,100.00
2023-01-01T20:47:16.514Z,100.00
2023-01-01T20:49:44.848Z,100.00
2023-01-01T20:52:17.451Z,100.00
2023-01-01T20:54:53.762Z,100.00
2023-01-01T20:57:26.808Z,100.00
2023-01-01T20:59:54.738Z,100.00
2023-01-01T21:02:27.845Z,100.00
2023-01-01T21:05:00.929Z,100.00
2023-01-01T21:07:28.941Z,100.00
2023-01-01T21:09:57.039Z,100.00
2023-01-01T21:12:24.933Z,100.00
2023-01-01T21:14:58.058Z,100.00
2023-01-01T21:17:30.691Z,100.00
2023-01-01T21:19:58.613Z,100.00
2023-01-01T21:22:27.153Z,100.00
2023-01-01T21:25:23.992Z,100.00
2023-01-01T21:28:09.221Z,100.00
2023-01-01T21:31:02.529Z,100.00
2023-01-01T21:33:31.753Z,100.00
2023-01-01T21:36:00.246Z,100.00
2023-01-01T21:38:33.627Z,100.00
2023-01-01T21:41:01.707Z,100.00
2023-01-01T21:43:39.745Z,100.00
2023-01-01T21:46:07.686Z,100.00
2023-01-01T21:48:42.603Z,100.00
2023-01-01T21:51:42.696Z,100.00
2023-01-01T21:54:15.389Z,100.00
2023-01-01T21:56:53.057Z,100.00
2023-01-01T21:59:39.429Z,100.00
2023-01-01T22:02:07.545Z,100.00
2023-01-01T22:04:43.431Z,100.00
2023-01-01T22:10:30.954Z,100.00
2023-01-01T22:13:00.157Z,100.00
2023-01-01T22:15:31.921Z,100.00
2023-01-01T22:18:13.176Z,100.00
2023-01-01T22:20:43.113Z,100.00
2023-01-01T22:23:49.262Z,100.00
2023-01-01T22:26:23.218Z,100.00
2023-01-01T22:28:53.032Z,100.00
2023-01-01T22:31:25.139Z,100.00
2023-01-01T22:33:57.733Z,100.00
2023-01-01T22:36:27.473Z,100.00
2023-01-01T22:38:57.280Z,100.00
2023-01-01T22:41:30.132Z,100.00
2023-01-01T22:44:06.340Z,100.00
2023-01-01T22:46:38.448Z,100.00
2023-01-01T22:49:16.322Z,100.00
2023-01-01T22:51:44.973Z,100.00
2023-01-01T22:54:12.867Z,100.00
2023-01-01T22:56:40.848Z,100.00
2023-01-01T22:59:13.377Z,100.00
2023-01-01T23:01:41.519Z,100.00
2023-01-01T23:04:11.794Z,100.00
2023-01-01T23:06:39.869Z,100.00
2023-01-01T23:09:12.417Z,100.00
2023-01-01T23:11:40.323Z,100.00
2023-01-01T23:14:26.747Z,100.00
2023-01-01T23:16:54.714Z,100.00
2023-01-01T23:19:22.641Z,100.00
2023-01-01T23:21:51.973Z,100.00
2023-01-01T23:24:20.789Z,100.00
2023-01-01T23:26:48.751Z,100.00
2023-01-01T23:29:16.673Z,100.00
2023-01-01T23:31:44.664Z,100.00
2023-01-01T23:34:12.593Z,100.00
2023-01-01T23:36:43.846Z,100.00
2023-01-01T23:39:12.965Z,100.00
2023-01-01T23:41:41.755Z,100.00
2023-01-01T23:44:09.703Z,100.00
2023-01-01T23:46:38.334Z,100.00
2023-01-01T23:49:06.769Z,100.00
2023-01-01T23:51:35.084Z,100.00
2023-01-01T23:54:07.887Z,100.00
2023-01-01T23:56:35.829Z,100.00
2023-01-01T23:59:08.974Z,100.00
